sensor_id;sensor_type;location;lat;lon;timestamp;pressure;altitude;pressure_sealevel;temperature;humidity
20119;BME280;10220;42.716;23.306;2023-12-28T00:01:28;96365.13;;;4.36;100.00
20119;BME280;10220;42.716;23.306;2023-12-28T00:03:53;96374.56;;;4.26;100.00
20119;BME280;10220;42.716;23.306;2023-12-28T00:06:19;96381.84;;;4.03;100.00
20119;BME280;10220;42.716;23.306;2023-12-28T00:08:44;96383.56;;;4.11;100.00
20119;BME280;10220;42.716;23.306;2023-12-28T00:11:10;96372.53;;;4.30;100.00
20119;BME280;10220;42.716;23.306;2023-12-28T00:13:35;96372.53;;;4.39;100.00
20119;BME280;10220;42.716;23.306;2023-12-28T00:16:01;96370.91;;;4.29;100.00
20119;BME280;10220;42.716;23.306;2023-12-28T00:18:26;96355.38;;;4.30;100.00
20119;BME280;10220;42.716;23.306;2023-12-28T00:20:52;96382.38;;;4.44;100.00
20119;BME280;10220;42.716;23.306;2023-12-28T00:23:18;96347.84;;;4.29;100.00
20119;BME280;10220;42.716;23.306;2023-12-28T00:25:48;96370.75;;;4.40;100.00
20119;BME280;10220;42.716;23.306;2023-12-28T00:28:13;96392.91;;;4.41;100.00
20119;BME280;10220;42.716;23.306;2023-12-28T00:30:39;96343.91;;;4.15;100.00
20119;BME280;10220;42.716;23.306;2023-12-28T00:33:04;96385.06;;;4.42;100.00
20119;BME280;10220;42.716;23.306;2023-12-28T00:35:30;96379.38;;;4.39;100.00
20119;BME280;10220;42.716;23.306;2023-12-28T00:37:55;96386.41;;;4.18;100.00
20119;BME280;10220;42.716;23.306;2023-12-28T00:40:24;96390.72;;;4.08;100.00
20119;BME280;10220;42.716;23.306;2023-12-28T00:42:49;96405.88;;;4.30;100.00
20119;BME280;10220;42.716;23.306;2023-12-28T00:45:15;96392.22;;;4.29;100.00
20119;BME280;10220;42.716;23.306;2023-12-28T00:47:40;96392.75;;;4.05;100.00
20119;BME280;10220;42.716;23.306;2023-12-28T00:50:08;96406.81;;;4.19;100.00
20119;BME280;10220;42.716;23.306;2023-12-28T00:52:34;96380.59;;;3.88;100.00
20119;BME280;10220;42.716;23.306;2023-12-28T00:55:00;96410.19;;;3.71;100.00
20119;BME280;10220;42.716;23.306;2023-12-28T00:57:25;96417.22;;;3.79;100.00
20119;BME280;10220;42.716;23.306;2023-12-28T00:59:50;96409.06;;;4.04;100.00
20119;BME280;10220;42.716;23.306;2023-12-28T01:02:18;96423.25;;;4.17;100.00
20119;BME280;10220;42.716;23.306;2023-12-28T01:04:44;96403.13;;;4.03;100.00
20119;BME280;10220;42.716;23.306;2023-12-28T01:07:09;96413.38;;;3.94;100.00
20119;BME280;10220;42.716;23.306;2023-12-28T01:09:34;96408.41;;;4.11;100.00
20119;BME280;10220;42.716;23.306;2023-12-28T01:12:00;96417.72;;;4.31;100.00
20119;BME280;10220;42.716;23.306;2023-12-28T01:14:25;96423.38;;;4.15;100.00
20119;BME280;10220;42.716;23.306;2023-12-28T01:16:51;96410.97;;;4.02;100.00
20119;BME280;10220;42.716;23.306;2023-12-28T01:19:16;96420.00;;;4.24;100.00
20119;BME280;10220;42.716;23.306;2023-12-28T01:21:42;96414.63;;;4.27;100.00
20119;BME280;10220;42.716;23.306;2023-12-28T01:24:07;96409.19;;;4.11;100.00
20119;BME280;10220;42.716;23.306;2023-12-28T01:26:33;96381.00;;;3.83;100.00
20119;BME280;10220;42.716;23.306;2023-12-28T01:29:00;96391.03;;;3.66;100.00
20119;BME280;10220;42.716;23.306;2023-12-28T01:31:28;96415.53;;;4.07;100.00
20119;BME280;10220;42.716;23.306;2023-12-28T01:33:54;96404.25;;;3.61;100.00
20119;BME280;10220;42.716;23.306;2023-12-28T01:36:20;96409.03;;;3.75;100.00
20119;BME280;10220;42.716;23.306;2023-12-28T01:38:46;96414.50;;;3.61;100.00
20119;BME280;10220;42.716;23.306;2023-12-28T01:41:11;96407.28;;;3.95;100.00
20119;BME280;10220;42.716;23.306;2023-12-28T01:43:39;96380.06;;;3.45;100.00
20119;BME280;10220;42.716;23.306;2023-12-28T01:46:05;96411.41;;;3.28;100.00
20119;BME280;10220;42.716;23.306;2023-12-28T01:48:32;96408.53;;;3.61;100.00
20119;BME280;10220;42.716;23.306;2023-12-28T01:50:58;96399.78;;;3.63;100.00
20119;BME280;10220;42.716;23.306;2023-12-28T01:53:24;96402.00;;;3.77;100.00
20119;BME280;10220;42.716;23.306;2023-12-28T01:55:49;96401.97;;;3.68;100.00
20119;BME280;10220;42.716;23.306;2023-12-28T01:58:15;96394.03;;;3.71;100.00
20119;BME280;10220;42.716;23.306;2023-12-28T02:00:41;96408.19;;;3.75;100.00
20119;BME280;10220;42.716;23.306;2023-12-28T02:03:08;96396.56;;;3.52;100.00
20119;BME280;10220;42.716;23.306;2023-12-28T02:05:34;96413.03;;;3.78;100.00
20119;BME280;10220;42.716;23.306;2023-12-28T02:08:00;96399.44;;;3.77;100.00
20119;BME280;10220;42.716;23.306;2023-12-28T02:10:26;96403.06;;;3.65;100.00
20119;BME280;10220;42.716;23.306;2023-12-28T02:12:51;96404.03;;;3.44;100.00
20119;BME280;10220;42.716;23.306;2023-12-28T02:15:19;96401.84;;;3.69;100.00
20119;BME280;10220;42.716;23.306;2023-12-28T02:20:19;96392.59;;;3.87;100.00
20119;BME280;10220;42.716;23.306;2023-12-28T02:22:45;96387.19;;;3.90;100.00
20119;BME280;10220;42.716;23.306;2023-12-28T02:25:12;96401.00;;;4.55;100.00
20119;BME280;10220;42.716;23.306;2023-12-28T02:27:42;96394.88;;;4.94;100.00
20119;BME280;10220;42.716;23.306;2023-12-28T02:30:09;96417.56;;;2.96;100.00
20119;BME280;10220;42.716;23.306;2023-12-28T02:32:38;96413.25;;;2.35;100.00
20119;BME280;10220;42.716;23.306;2023-12-28T02:38:20;96401.59;;;3.33;100.00
20119;BME280;10220;42.716;23.306;2023-12-28T02:40:48;96395.94;;;2.80;100.00
20119;BME280;10220;42.716;23.306;2023-12-28T02:43:14;96383.94;;;3.30;100.00
20119;BME280;10220;42.716;23.306;2023-12-28T02:45:40;96391.22;;;3.05;100.00
20119;BME280;10220;42.716;23.306;2023-12-28T02:48:06;96390.47;;;3.53;100.00
20119;BME280;10220;42.716;23.306;2023-12-28T02:50:32;96384.53;;;3.43;100.00
20119;BME280;10220;42.716;23.306;2023-12-28T02:52:58;96377.75;;;4.57;100.00
20119;BME280;10220;42.716;23.306;2023-12-28T02:55:24;96366.97;;;4.44;100.00
20119;BME280;10220;42.716;23.306;2023-12-28T02:57:51;96368.50;;;4.92;100.00
20119;BME280;10220;42.716;23.306;2023-12-28T03:00:17;96383.66;;;3.72;100.00
20119;BME280;10220;42.716;23.306;2023-12-28T03:02:43;96380.84;;;3.36;100.00
20119;BME280;10220;42.716;23.306;2023-12-28T03:05:08;96359.28;;;4.44;100.00
20119;BME280;10220;42.716;23.306;2023-12-28T03:07:34;96380.31;;;4.66;100.00
20119;BME280;10220;42.716;23.306;2023-12-28T03:10:00;96347.41;;;5.07;100.00
20119;BME280;10220;42.716;23.306;2023-12-28T03:12:27;96370.53;;;5.61;100.00
20119;BME280;10220;42.716;23.306;2023-12-28T03:14:53;96388.16;;;5.56;100.00
20119;BME280;10220;42.716;23.306;2023-12-28T03:17:18;96387.78;;;5.51;100.00
20119;BME280;10220;42.716;23.306;2023-12-28T03:19:44;96379.28;;;5.77;100.00
20119;BME280;10220;42.716;23.306;2023-12-28T03:22:12;96359.91;;;5.82;100.00
20119;BME280;10220;42.716;23.306;2023-12-28T03:24:38;96363.63;;;5.97;100.00
20119;BME280;10220;42.716;23.306;2023-12-28T03:27:04;96344.53;;;6.00;100.00
20119;BME280;10220;42.716;23.306;2023-12-28T03:29:30;96348.41;;;6.04;100.00
20119;BME280;10220;42.716;23.306;2023-12-28T03:31:56;96375.75;;;6.40;100.00
20119;BME280;10220;42.716;23.306;2023-12-28T03:34:21;96378.31;;;6.40;100.00
20119;BME280;10220;42.716;23.306;2023-12-28T03:36:48;96349.91;;;5.80;100.00
20119;BME280;10220;42.716;23.306;2023-12-28T03:39:14;96371.97;;;4.55;100.00
20119;BME280;10220;42.716;23.306;2023-12-28T03:41:39;96386.41;;;4.46;100.00
20119;BME280;10220;42.716;23.306;2023-12-28T03:44:05;96388.41;;;3.86;100.00
20119;BME280;10220;42.716;23.306;2023-12-28T03:46:30;96370.19;;;3.31;100.00
20119;BME280;10220;42.716;23.306;2023-12-28T03:48:56;96401.88;;;3.79;100.00
20119;BME280;10220;42.716;23.306;2023-12-28T03:51:21;96367.38;;;4.49;100.00
20119;BME280;10220;42.716;23.306;2023-12-28T03:53:47;96390.03;;;5.27;100.00
20119;BME280;10220;42.716;23.306;2023-12-28T03:56:26;96401.34;;;3.94;100.00
20119;BME280;10220;42.716;23.306;2023-12-28T03:58:52;96398.28;;;4.47;100.00
20119;BME280;10220;42.716;23.306;2023-12-28T04:01:19;96394.00;;;5.12;100.00
20119;BME280;10220;42.716;23.306;2023-12-28T04:03:45;96392.38;;;5.47;100.00
20119;BME280;10220;42.716;23.306;2023-12-28T04:06:12;96397.72;;;5.63;100.00
20119;BME280;10220;42.716;23.306;2023-12-28T04:08:38;96411.16;;;5.57;100.00
20119;BME280;10220;42.716;23.306;2023-12-28T04:11:04;96394.41;;;5.80;100.00
20119;BME280;10220;42.716;23.306;2023-12-28T04:13:29;96395.31;;;5.88;100.00
20119;BME280;10220;42.716;23.306;2023-12-28T04:15:55;96397.69;;;5.99;100.00
20119;BME280;10220;42.716;23.306;2023-12-28T04:18:20;96413.81;;;6.19;100.00
20119;BME280;10220;42.716;23.306;2023-12-28T04:20:46;96400.50;;;6.06;100.00
20119;BME280;10220;42.716;23.306;2023-12-28T04:23:11;96409.44;;;6.02;100.00
20119;BME280;10220;42.716;23.306;2023-12-28T04:25:37;96402.00;;;5.72;100.00
20119;BME280;10220;42.716;23.306;2023-12-28T04:28:02;96411.00;;;5.59;100.00
20119;BME280;10220;42.716;23.306;2023-12-28T04:30:28;96399.84;;;6.04;100.00
20119;BME280;10220;42.716;23.306;2023-12-28T04:32:53;96404.06;;;5.95;100.00
20119;BME280;10220;42.716;23.306;2023-12-28T04:35:22;96390.66;;;6.19;100.00
20119;BME280;10220;42.716;23.306;2023-12-28T04:37:47;96401.34;;;5.97;100.00
20119;BME280;10220;42.716;23.306;2023-12-28T04:40:13;96381.38;;;5.91;100.00
20119;BME280;10220;42.716;23.306;2023-12-28T04:42:40;96397.31;;;5.68;100.00
20119;BME280;10220;42.716;23.306;2023-12-28T04:45:07;96396.63;;;5.66;100.00
20119;BME280;10220;42.716;23.306;2023-12-28T04:47:32;96412.66;;;5.86;100.00
20119;BME280;10220;42.716;23.306;2023-12-28T04:49:58;96419.13;;;5.90;100.00
20119;BME280;10220;42.716;23.306;2023-12-28T04:52:23;96415.38;;;5.49;100.00
20119;BME280;10220;42.716;23.306;2023-12-28T04:54:49;96407.72;;;5.76;100.00
20119;BME280;10220;42.716;23.306;2023-12-28T04:57:14;96405.47;;;5.90;100.00
20119;BME280;10220;42.716;23.306;2023-12-28T04:59:43;96413.31;;;5.88;100.00
20119;BME280;10220;42.716;23.306;2023-12-28T05:02:08;96388.72;;;6.03;100.00
20119;BME280;10220;42.716;23.306;2023-12-28T05:04:36;96415.56;;;6.18;100.00
20119;BME280;10220;42.716;23.306;2023-12-28T05:07:03;96418.06;;;6.28;100.00
20119;BME280;10220;42.716;23.306;2023-12-28T05:09:29;96415.50;;;6.28;100.00
20119;BME280;10220;42.716;23.306;2023-12-28T05:11:54;96406.09;;;6.19;100.00
20119;BME280;10220;42.716;23.306;2023-12-28T05:14:20;96412.47;;;5.61;100.00
20119;BME280;10220;42.716;23.306;2023-12-28T05:16:45;96420.09;;;5.89;100.00
20119;BME280;10220;42.716;23.306;2023-12-28T05:19:11;96381.88;;;5.68;100.00
20119;BME280;10220;42.716;23.306;2023-12-28T05:21:36;96422.38;;;5.92;100.00
20119;BME280;10220;42.716;23.306;2023-12-28T05:24:02;96421.22;;;5.68;100.00
20119;BME280;10220;42.716;23.306;2023-12-28T05:26:28;96413.44;;;5.60;100.00
20119;BME280;10220;42.716;23.306;2023-12-28T05:28:53;96410.06;;;5.23;100.00
20119;BME280;10220;42.716;23.306;2023-12-28T05:31:19;96410.94;;;4.86;100.00
20119;BME280;10220;42.716;23.306;2023-12-28T05:33:44;96430.94;;;4.45;100.00
20119;BME280;10220;42.716;23.306;2023-12-28T05:36:10;96400.00;;;4.00;100.00
20119;BME280;10220;42.716;23.306;2023-12-28T05:38:35;96399.50;;;4.43;100.00
20119;BME280;10220;42.716;23.306;2023-12-28T05:41:01;96420.16;;;4.42;100.00
20119;BME280;10220;42.716;23.306;2023-12-28T05:43:26;96411.66;;;3.64;100.00
20119;BME280;10220;42.716;23.306;2023-12-28T05:45:52;96428.53;;;3.37;100.00
20119;BME280;10220;42.716;23.306;2023-12-28T05:48:17;96398.66;;;2.88;100.00
20119;BME280;10220;42.716;23.306;2023-12-28T05:50:42;96416.56;;;3.38;100.00
20119;BME280;10220;42.716;23.306;2023-12-28T05:53:08;96420.66;;;3.49;100.00
20119;BME280;10220;42.716;23.306;2023-12-28T05:55:42;96418.97;;;3.69;100.00
20119;BME280;10220;42.716;23.306;2023-12-28T05:58:08;96419.59;;;3.22;100.00
20119;BME280;10220;42.716;23.306;2023-12-28T06:00:34;96442.50;;;3.24;100.00
20119;BME280;10220;42.716;23.306;2023-12-28T06:03:01;96428.75;;;2.75;100.00
20119;BME280;10220;42.716;23.306;2023-12-28T06:05:27;96459.84;;;3.20;100.00
20119;BME280;10220;42.716;23.306;2023-12-28T06:07:53;96428.91;;;4.11;100.00
20119;BME280;10220;42.716;23.306;2023-12-28T06:10:18;96445.41;;;4.65;100.00
20119;BME280;10220;42.716;23.306;2023-12-28T06:12:43;96429.84;;;5.04;100.00
20119;BME280;10220;42.716;23.306;2023-12-28T06:15:09;96442.00;;;5.12;100.00
20119;BME280;10220;42.716;23.306;2023-12-28T06:17:38;96438.44;;;5.13;100.00
20119;BME280;10220;42.716;23.306;2023-12-28T06:20:03;96420.63;;;5.11;100.00
20119;BME280;10220;42.716;23.306;2023-12-28T06:22:29;96439.47;;;5.38;100.00
20119;BME280;10220;42.716;23.306;2023-12-28T06:24:55;96449.06;;;4.63;100.00
20119;BME280;10220;42.716;23.306;2023-12-28T06:27:21;96456.59;;;4.45;100.00
20119;BME280;10220;42.716;23.306;2023-12-28T06:29:47;96437.09;;;5.09;100.00
20119;BME280;10220;42.716;23.306;2023-12-28T06:32:13;96443.69;;;5.30;100.00
20119;BME280;10220;42.716;23.306;2023-12-28T06:34:39;96415.47;;;5.11;100.00
20119;BME280;10220;42.716;23.306;2023-12-28T06:37:04;96452.50;;;5.18;100.00
20119;BME280;10220;42.716;23.306;2023-12-28T06:39:30;96459.06;;;4.84;100.00
20119;BME280;10220;42.716;23.306;2023-12-28T06:41:55;96465.78;;;4.85;100.00
20119;BME280;10220;42.716;23.306;2023-12-28T06:44:21;96446.31;;;4.83;100.00
20119;BME280;10220;42.716;23.306;2023-12-28T06:46:46;96464.00;;;4.29;100.00
20119;BME280;10220;42.716;23.306;2023-12-28T06:49:12;96447.00;;;4.66;100.00
20119;BME280;10220;42.716;23.306;2023-12-28T06:51:37;96452.06;;;5.32;100.00
20119;BME280;10220;42.716;23.306;2023-12-28T06:54:03;96430.03;;;5.66;100.00
20119;BME280;10220;42.716;23.306;2023-12-28T06:56:29;96459.06;;;5.85;100.00
20119;BME280;10220;42.716;23.306;2023-12-28T06:58:55;96446.53;;;5.99;100.00
20119;BME280;10220;42.716;23.306;2023-12-28T07:01:20;96475.91;;;5.97;100.00
20119;BME280;10220;42.716;23.306;2023-12-28T07:03:46;96461.78;;;5.83;100.00
20119;BME280;10220;42.716;23.306;2023-12-28T07:06:13;96470.19;;;5.76;100.00
20119;BME280;10220;42.716;23.306;2023-12-28T07:08:39;96477.09;;;5.30;100.00
20119;BME280;10220;42.716;23.306;2023-12-28T07:11:04;96460.25;;;4.62;100.00
20119;BME280;10220;42.716;23.306;2023-12-28T07:13:30;96472.28;;;4.61;100.00
20119;BME280;10220;42.716;23.306;2023-12-28T07:15:55;96471.22;;;4.64;100.00
20119;BME280;10220;42.716;23.306;2023-12-28T07:18:21;96467.13;;;3.84;100.00
20119;BME280;10220;42.716;23.306;2023-12-28T07:20:47;96472.75;;;3.39;100.00
20119;BME280;10220;42.716;23.306;2023-12-28T07:23:12;96473.16;;;3.74;100.00
20119;BME280;10220;42.716;23.306;2023-12-28T07:25:38;96464.75;;;3.92;100.00
20119;BME280;10220;42.716;23.306;2023-12-28T07:28:04;96439.56;;;3.67;100.00
20119;BME280;10220;42.716;23.306;2023-12-28T07:30:29;96467.47;;;4.00;100.00
20119;BME280;10220;42.716;23.306;2023-12-28T07:32:55;96460.47;;;4.11;100.00
20119;BME280;10220;42.716;23.306;2023-12-28T07:35:20;96461.31;;;4.31;100.00
20119;BME280;10220;42.716;23.306;2023-12-28T07:37:46;96457.97;;;4.59;100.00
20119;BME280;10220;42.716;23.306;2023-12-28T07:40:12;96443.22;;;4.70;100.00
20119;BME280;10220;42.716;23.306;2023-12-28T07:42:38;96464.72;;;4.69;100.00
20119;BME280;10220;42.716;23.306;2023-12-28T07:45:04;96466.34;;;4.51;100.00
20119;BME280;10220;42.716;23.306;2023-12-28T07:47:30;96469.97;;;4.49;100.00
20119;BME280;10220;42.716;23.306;2023-12-28T07:49:55;96454.47;;;4.69;100.00
20119;BME280;10220;42.716;23.306;2023-12-28T07:52:21;96450.69;;;4.64;100.00
20119;BME280;10220;42.716;23.306;2023-12-28T07:54:46;96453.25;;;4.64;100.00
20119;BME280;10220;42.716;23.306;2023-12-28T07:57:12;96475.91;;;4.87;100.00
20119;BME280;10220;42.716;23.306;2023-12-28T07:59:37;96475.38;;;4.83;100.00
20119;BME280;10220;42.716;23.306;2023-12-28T08:02:03;96471.03;;;5.03;100.00
20119;BME280;10220;42.716;23.306;2023-12-28T08:04:29;96472.19;;;5.27;100.00
20119;BME280;10220;42.716;23.306;2023-12-28T08:06:54;96479.41;;;5.23;100.00
20119;BME280;10220;42.716;23.306;2023-12-28T08:09:19;96468.25;;;5.42;100.00
20119;BME280;10220;42.716;23.306;2023-12-28T08:11:45;96465.78;;;5.50;100.00
20119;BME280;10220;42.716;23.306;2023-12-28T08:14:10;96460.75;;;5.77;100.00
20119;BME280;10220;42.716;23.306;2023-12-28T08:16:36;96460.63;;;5.95;100.00
20119;BME280;10220;42.716;23.306;2023-12-28T08:19:02;96457.75;;;6.25;100.00
20119;BME280;10220;42.716;23.306;2023-12-28T08:21:28;96466.94;;;5.74;100.00
20119;BME280;10220;42.716;23.306;2023-12-28T08:23:53;96440.84;;;6.05;100.00
20119;BME280;10220;42.716;23.306;2023-12-28T08:26:18;96461.03;;;6.44;100.00
20119;BME280;10220;42.716;23.306;2023-12-28T08:28:44;96466.38;;;6.68;100.00
20119;BME280;10220;42.716;23.306;2023-12-28T08:31:10;96456.97;;;6.94;100.00
20119;BME280;10220;42.716;23.306;2023-12-28T08:33:36;96455.28;;;7.02;100.00
20119;BME280;10220;42.716;23.306;2023-12-28T08:36:11;96458.97;;;7.00;100.00
20119;BME280;10220;42.716;23.306;2023-12-28T08:38:37;96455.75;;;7.23;100.00
20119;BME280;10220;42.716;23.306;2023-12-28T08:41:03;96464.59;;;7.03;100.00
20119;BME280;10220;42.716;23.306;2023-12-28T08:43:34;96450.50;;;6.21;100.00
20119;BME280;10220;42.716;23.306;2023-12-28T08:46:00;96440.63;;;6.34;100.00
20119;BME280;10220;42.716;23.306;2023-12-28T08:48:25;96443.00;;;6.27;100.00
20119;BME280;10220;42.716;23.306;2023-12-28T08:50:50;96436.25;;;6.43;100.00
20119;BME280;10220;42.716;23.306;2023-12-28T08:53:16;96437.88;;;6.44;100.00
20119;BME280;10220;42.716;23.306;2023-12-28T08:55:41;96434.41;;;6.53;100.00
20119;BME280;10220;42.716;23.306;2023-12-28T08:58:07;96432.06;;;6.60;100.00
20119;BME280;10220;42.716;23.306;2023-12-28T09:00:32;96442.84;;;6.63;100.00
20119;BME280;10220;42.716;23.306;2023-12-28T09:02:58;96421.81;;;6.50;100.00
20119;BME280;10220;42.716;23.306;2023-12-28T09:05:23;96426.75;;;6.61;100.00
20119;BME280;10220;42.716;23.306;2023-12-28T09:07:49;96422.88;;;6.57;100.00
20119;BME280;10220;42.716;23.306;2023-12-28T09:10:14;96403.81;;;6.50;100.00
20119;BME280;10220;42.716;23.306;2023-12-28T09:12:40;96419.84;;;6.79;100.00
20119;BME280;10220;42.716;23.306;2023-12-28T09:15:07;96421.22;;;6.74;100.00
20119;BME280;10220;42.716;23.306;2023-12-28T09:17:33;96390.06;;;6.42;100.00
20119;BME280;10220;42.716;23.306;2023-12-28T09:19:59;96406.81;;;6.63;100.00
20119;BME280;10220;42.716;23.306;2023-12-28T09:22:24;96402.19;;;6.67;100.00
20119;BME280;10220;42.716;23.306;2023-12-28T09:24:50;96399.59;;;6.84;100.00
20119;BME280;10220;42.716;23.306;2023-12-28T09:27:16;96404.09;;;6.13;100.00
20119;BME280;10220;42.716;23.306;2023-12-28T09:29:41;96390.88;;;6.60;100.00
20119;BME280;10220;42.716;23.306;2023-12-28T09:32:07;96380.28;;;6.63;100.00
20119;BME280;10220;42.716;23.306;2023-12-28T09:34:35;96376.47;;;6.49;100.00
20119;BME280;10220;42.716;23.306;2023-12-28T09:37:00;96385.09;;;6.41;100.00
20119;BME280;10220;42.716;23.306;2023-12-28T09:39:26;96375.06;;;6.20;100.00
20119;BME280;10220;42.716;23.306;2023-12-28T09:42:25;96363.84;;;6.04;100.00
20119;BME280;10220;42.716;23.306;2023-12-28T09:44:54;96366.03;;;6.34;100.00
20119;BME280;10220;42.716;23.306;2023-12-28T09:47:20;96350.31;;;6.37;100.00
20119;BME280;10220;42.716;23.306;2023-12-28T09:49:46;96344.25;;;6.63;100.00
20119;BME280;10220;42.716;23.306;2023-12-28T09:52:12;96343.09;;;6.83;100.00
20119;BME280;10220;42.716;23.306;2023-12-28T09:54:37;96347.63;;;6.63;100.00
20119;BME280;10220;42.716;23.306;2023-12-28T09:57:03;96340.13;;;6.95;100.00
20119;BME280;10220;42.716;23.306;2023-12-28T09:59:31;96339.34;;;7.28;100.00
20119;BME280;10220;42.716;23.306;2023-12-28T10:01:58;96331.25;;;7.56;100.00
20119;BME280;10220;42.716;23.306;2023-12-28T10:04:26;96327.13;;;7.79;100.00
20119;BME280;10220;42.716;23.306;2023-12-28T10:06:54;96317.88;;;8.18;100.00
20119;BME280;10220;42.716;23.306;2023-12-28T10:09:21;96325.63;;;8.25;100.00
20119;BME280;10220;42.716;23.306;2023-12-28T10:11:47;96323.38;;;8.38;100.00
20119;BME280;10220;42.716;23.306;2023-12-28T10:14:13;96303.34;;;8.24;100.00
20119;BME280;10220;42.716;23.306;2023-12-28T10:16:42;96318.88;;;8.40;100.00
20119;BME280;10220;42.716;23.306;2023-12-28T10:19:07;96311.84;;;9.04;100.00
20119;BME280;10220;42.716;23.306;2023-12-28T10:21:33;96305.63;;;8.83;100.00
20119;BME280;10220;42.716;23.306;2023-12-28T10:23:59;96304.66;;;8.68;100.00
20119;BME280;10220;42.716;23.306;2023-12-28T10:26:25;96298.50;;;9.39;100.00
20119;BME280;10220;42.716;23.306;2023-12-28T10:28:50;96273.19;;;10.17;100.00
20119;BME280;10220;42.716;23.306;2023-12-28T10:31:21;96272.91;;;9.14;100.00
20119;BME280;10220;42.716;23.306;2023-12-28T10:33:47;96255.88;;;9.88;100.00
20119;BME280;10220;42.716;23.306;2023-12-28T10:36:14;96256.38;;;10.36;100.00
20119;BME280;10220;42.716;23.306;2023-12-28T10:38:41;96244.75;;;10.32;100.00
20119;BME280;10220;42.716;23.306;2023-12-28T10:41:10;96261.97;;;10.02;100.00
20119;BME280;10220;42.716;23.306;2023-12-28T10:43:45;96244.81;;;10.24;100.00
20119;BME280;10220;42.716;23.306;2023-12-28T10:46:35;96245.19;;;10.72;100.00
20119;BME280;10220;42.716;23.306;2023-12-28T10:49:04;96243.19;;;10.59;100.00
20119;BME280;10220;42.716;23.306;2023-12-28T10:51:34;96196.94;;;10.20;100.00
20119;BME280;10220;42.716;23.306;2023-12-28T10:57:22;96227.41;;;9.65;100.00
20119;BME280;10220;42.716;23.306;2023-12-28T10:59:50;96225.50;;;10.63;100.00
20119;BME280;10220;42.716;23.306;2023-12-28T11:02:18;96205.03;;;11.75;100.00
20119;BME280;10220;42.716;23.306;2023-12-28T11:04:50;96221.06;;;11.14;97.67
20119;BME280;10220;42.716;23.306;2023-12-28T11:07:18;96217.41;;;11.09;100.00
20119;BME280;10220;42.716;23.306;2023-12-28T11:09:45;96211.50;;;12.00;100.00
20119;BME280;10220;42.716;23.306;2023-12-28T11:12:11;96207.28;;;10.56;98.13
20119;BME280;10220;42.716;23.306;2023-12-28T11:14:41;96186.75;;;11.62;100.00
20119;BME280;10220;42.716;23.306;2023-12-28T11:17:09;96198.16;;;12.30;98.22
20119;BME280;10220;42.716;23.306;2023-12-28T11:19:35;96195.16;;;12.54;94.84
20119;BME280;10220;42.716;23.306;2023-12-28T11:22:03;96188.97;;;12.55;97.58
20119;BME280;10220;42.716;23.306;2023-12-28T11:24:29;96173.41;;;11.65;92.90
20119;BME280;10220;42.716;23.306;2023-12-28T11:26:56;96189.34;;;12.25;100.00
20119;BME280;10220;42.716;23.306;2023-12-28T11:29:23;96162.81;;;13.37;100.00
20119;BME280;10220;42.716;23.306;2023-12-28T11:31:52;96175.13;;;13.09;94.38
20119;BME280;10220;42.716;23.306;2023-12-28T11:34:18;96147.63;;;13.40;97.99
20119;BME280;10220;42.716;23.306;2023-12-28T11:36:48;96163.00;;;13.29;87.03
20119;BME280;10220;42.716;23.306;2023-12-28T11:39:20;96170.69;;;12.42;85.15
20119;BME280;10220;42.716;23.306;2023-12-28T11:42:02;96140.25;;;13.03;100.00
20119;BME280;10220;42.716;23.306;2023-12-28T11:44:36;96149.25;;;12.40;99.44
20119;BME280;10220;42.716;23.306;2023-12-28T11:47:24;96135.22;;;12.95;100.00
20119;BME280;10220;42.716;23.306;2023-12-28T11:49:52;96129.22;;;12.95;100.00
20119;BME280;10220;42.716;23.306;2023-12-28T11:52:27;96121.94;;;12.84;94.60
20119;BME280;10220;42.716;23.306;2023-12-28T11:54:53;96138.31;;;12.17;90.76
20119;BME280;10220;42.716;23.306;2023-12-28T11:57:19;96141.88;;;11.89;97.56
20119;BME280;10220;42.716;23.306;2023-12-28T11:59:44;96128.56;;;12.53;100.00
20119;BME280;10220;42.716;23.306;2023-12-28T12:02:10;96139.97;;;11.97;99.63
20119;BME280;10220;42.716;23.306;2023-12-28T12:04:37;96133.88;;;11.90;100.00
20119;BME280;10220;42.716;23.306;2023-12-28T12:07:03;96127.88;;;12.72;100.00
20119;BME280;10220;42.716;23.306;2023-12-28T12:09:32;96121.59;;;12.87;100.00
20119;BME280;10220;42.716;23.306;2023-12-28T12:12:01;96126.97;;;13.39;100.00
20119;BME280;10220;42.716;23.306;2023-12-28T12:14:27;96108.63;;;12.93;98.34
20119;BME280;10220;42.716;23.306;2023-12-28T12:16:54;96100.38;;;13.49;100.00
20119;BME280;10220;42.716;23.306;2023-12-28T12:19:22;96114.84;;;13.65;100.00
20119;BME280;10220;42.716;23.306;2023-12-28T12:21:48;96112.25;;;12.65;96.10
20119;BME280;10220;42.716;23.306;2023-12-28T12:24:21;96106.56;;;13.36;100.00
20119;BME280;10220;42.716;23.306;2023-12-28T12:26:50;96124.94;;;13.28;100.00
20119;BME280;10220;42.716;23.306;2023-12-28T12:29:17;96114.88;;;13.05;100.00
20119;BME280;10220;42.716;23.306;2023-12-28T12:31:43;96102.91;;;12.43;99.37
20119;BME280;10220;42.716;23.306;2023-12-28T12:34:15;96103.41;;;12.60;100.00
20119;BME280;10220;42.716;23.306;2023-12-28T12:36:41;96117.28;;;12.73;100.00
20119;BME280;10220;42.716;23.306;2023-12-28T12:39:07;96098.47;;;12.65;100.00
20119;BME280;10220;42.716;23.306;2023-12-28T12:41:34;96116.44;;;12.32;89.90
20119;BME280;10220;42.716;23.306;2023-12-28T12:43:59;96108.84;;;12.04;100.00
20119;BME280;10220;42.716;23.306;2023-12-28T12:46:26;96108.81;;;12.25;96.81
20119;BME280;10220;42.716;23.306;2023-12-28T12:48:58;96109.56;;;12.19;92.03
20119;BME280;10220;42.716;23.306;2023-12-28T12:51:27;96116.41;;;11.78;95.51
20119;BME280;10220;42.716;23.306;2023-12-28T12:54:00;96117.09;;;12.14;93.59